Latest Coastal Weather Observations for Cape Otway

IDT60701

Issued at 2:25 pm EST Wednesday 16 April 2014 (issued every 10 minutes, with the page automatically refreshed every 10 minutes)

About coastal observations | Map of coastal stations | Coastal observations for TAS | Marine services | Other Formats
Station Details ID: 090015 Name: CAPE OTWAY LIGHTHOUSE Lat: -38.86 Lon: 143.51 Height: 82.0 m
Data from the previous 72 hours. | See also: Recent months at Cape Otway
Date/Time
EST
Temp

°C
Wind Pressure Rain
since 9am
mm
Weather Cloud Vis
km
Sea
Height
m
Swell
Dir
 
Speed
knots
Gust
knots
hPa Trend Height
m
Period
s
Dir
16/02:00pm 17.0 ESE 6 9 1018.9 - 0.0 - - - - - - -
16/01:30pm 17.6 ENE 5 11 1019.0 - 0.0 - - - - - - -
16/01:00pm 16.7 ENE 7 11 1019.1 - 0.0 - - - - - - -
16/12:30pm 17.1 N 2 4 1019.6 - 0.0 - - - - - - -
16/12:00pm 16.9 NW 4 8 1020.1 - 0.0 - - - - - - -
16/11:30am 17.5 NE 6 10 1020.3 - 0.0 - - - - - - -
16/11:00am 16.8 NE 8 11 1020.4 - 0.0 - - - - - - -
16/10:30am 17.1 NE 8 13 1020.5 - 0.0 - - - - - - -
16/10:00am 17.1 NE 8 13 1020.5 - 0.0 - - - - - - -
16/09:30am 16.4 ENE 6 10 1020.7 - 0.0 - - - - - - -
16/09:00am 15.3 NE 7 10 1020.9 F 0.0 Fine Partly cloudy 20 1 1.0 - SW
16/08:30am 14.5 ESE 2 4 1021.1 - 0.0 - - - - - - -
16/08:00am 13.7 NNE 4 6 1021.1 - 0.0 - - - - - - -
16/07:30am 12.5 N 4 5 1021.0 - 0.0 - - - - - - -
16/07:00am 12.2 ENE 5 7 1020.8 - 0.0 - - - - - - -
16/06:30am 11.8 NE 4 4 1020.8 - 0.0 - - - - - - -
16/06:00am 12.1 NE 5 6 1020.7 - 0.0 - - - - - - -
16/05:30am 12.2 NE 5 7 1020.8 - 0.0 - - - - - - -
16/05:00am 12.2 NE 4 5 1021.0 - 0.0 - - - - - - -
16/04:30am 11.5 NNE 1 3 1021.2 - 0.0 - - - - - - -
16/04:00am 11.6 NE 1 3 1021.4 - 0.0 - - - - - - -
16/03:30am 12.6 CALM 0 0 1021.5 - 0.0 - - - - - - -
16/03:00am 13.1 NE 2 4 1021.6 - 0.0 - - - - - - -
16/02:30am 13.4 NE 4 6 1021.8 - 0.0 - - - - - - -
16/02:00am 12.8 ENE 6 7 1021.8 - 0.0 - - - - - - -
16/01:30am 13.0 NE 6 7 1022.1 - 0.0 - - - - - - -
16/01:00am 12.8 ENE 6 7 1022.3 - 0.0 - - - - - - -
16/12:30am 12.6 NE 6 7 1022.6 - 0.0 - - - - - - -
16/12:00am 12.0 NE 7 8 1022.7 - 0.0 - - - - - - -
 
Date/Time
EST
Temp

°C
Wind Pressure Rain
since 9am
mm
Weather Cloud Vis
km
Sea
Height
m
Swell
Dir
 
Speed
knots
Gust
knots
hPa Trend Height
m
Period
s
Dir
15/11:30pm 11.9 NE 6 7 1023.2 - 0.0 - - - - - - -
15/11:00pm 12.2 NE 7 7 1023.5 - 0.0 - - - - - - -
15/10:30pm 11.8 NE 5 6 1023.7 - 0.0 - - - - - - -
15/10:00pm 12.0 NE 5 5 1023.8 - 0.0 - - - - - - -
15/09:30pm 11.8 NE 4 5 1023.9 - 0.0 - - - - - - -
15/09:00pm 11.5 NE 4 6 1023.8 - 0.0 - - - - - - -
15/08:30pm 12.0 CALM 0 3 1024.0 - 0.0 - - - - - - -
15/08:00pm 13.0 CALM 0 0 1024.1 - 0.0 - - - - - - -
15/07:30pm 13.7 NE 4 6 1023.9 - 0.0 - - - - - - -
15/07:00pm 14.4 E 4 8 1023.9 - 0.0 - - - - - - -
15/06:30pm 14.6 SE 2 5 1023.7 - 0.0 - - - - - - -
15/06:00pm 14.7 SSW 1 5 1023.4 - 0.0 - - - - - - -
15/05:30pm 15.3 N 1 4 1023.3 - 0.0 - - - - - - -
15/05:00pm 15.7 SSW 1 5 1023.2 - 0.0 - - - - - - -
15/04:30pm 15.4 SSE 2 6 1023.2 - 0.0 - - - - - - -
15/04:00pm 15.6 SSE 4 6 1023.2 - 0.0 - - - - - - -
15/03:30pm 16.3 SE 4 7 1023.3 - 0.0 - - - - - - -
15/03:00pm 16.8 S 2 5 1023.4 F 0.0 Distant precip. Mostly cloudy 20 1 1.0 - S
15/02:30pm 16.8 S 3 7 1023.6 - 0.0 - - - - - - -
15/02:00pm 16.9 S 2 7 1023.7 - 0.0 - - - - - - -
15/01:30pm 17.6 SSW 3 8 1023.9 - 0.0 - - - - - - -
15/01:00pm 18.0 S 4 7 1024.1 - 0.0 - - - - - - -
15/12:30pm 17.4 S 5 8 1024.5 - 0.0 - - - - - - -
15/12:00pm 16.7 SE 5 9 1024.7 - 0.0 - - - - - - -
15/11:30am 16.8 SE 7 12 1025.1 - 0.0 - - - - - - -
15/11:00am 16.7 SSE 6 11 1025.3 - 0.0 - - - - - - -
15/10:30am 16.3 SE 7 13 1025.1 - 0.0 - - - - - - -
15/10:00am 15.8 ESE 6 10 1025.2 - 0.0 - - - - - - -
15/09:30am 15.9 S 7 11 1025.1 - 0.0 - - - - - - -
15/09:00am 16.0 SSE 6 12 1025.0 S 0.2 Fine Mostly cloudy 20 1 1.0 - S
15/08:30am 15.3 SSE 6 11 1025.0 - 0.2 - - - - - - -
15/08:00am 15.2 SE 7 11 1024.7 - 0.2 - - - - - - -
15/07:30am 14.9 N 5 10 1024.5 - 0.2 - - - - - - -
15/07:00am 14.7 W 5 8 1024.3 - 0.2 - - - - - - -
15/06:30am 14.7 WSW 7 11 1024.2 - 0.2 - - - - - - -
15/06:00am 14.8 W 5 9 1024.0 - 0.2 - - - - - - -
15/05:30am 14.9 W 5 8 1024.0 - 0.2 - - - - - - -
15/05:00am 14.4 W 5 8 1023.9 - 0.2 - - - - - - -
15/04:30am 15.1 WNW 5 7 1023.9 - 0.2 - - - - - - -
15/04:00am 14.8 SE 5 12 1023.8 - 0.2 - - - - - - -
15/03:30am 14.8 SE 6 10 1023.9 - 0.2 - - - - - - -
15/03:00am 14.7 SSE 6 9 1023.8 - 0.2 - - - - - - -
15/02:30am 14.7 SSW 5 12 1024.1 - 0.2 - - - - - - -
15/02:00am 14.8 S 5 8 1024.2 - 0.2 - - - - - - -
15/01:30am 14.9 ESE 6 9 1024.2 - 0.2 - - - - - - -
15/01:00am 15.1 SE 6 12 1024.2 - 0.2 - - - - - - -
15/12:30am 15.2 SE 5 9 1024.2 - 0.2 - - - - - - -
15/12:00am 15.6 SSE 6 11 1024.2 - 0.2 - - - - - - -
 
Date/Time
EST
Temp

°C
Wind Pressure Rain
since 9am
mm
Weather Cloud Vis
km
Sea
Height
m
Swell
Dir
 
Speed
knots
Gust
knots
hPa Trend Height
m
Period
s
Dir
14/11:30pm 15.1 SE 7 13 1024.4 - 0.2 - - - - - - -
14/11:00pm 15.1 SSE 5 9 1024.6 - 0.2 - - - - - - -
14/10:30pm 14.5 ENE 4 5 1024.8 - 0.2 - - - - - - -
14/10:00pm 15.2 ESE 7 9 1024.8 - 0.2 - - - - - - -
14/09:30pm 15.1 ESE 8 10 1024.9 - 0.2 - - - - - - -
14/09:00pm 15.1 SE 4 9 1024.7 - 0.2 - - - - - - -
14/08:30pm 15.1 SSE 3 6 1024.8 - 0.2 - - - - - - -
14/08:00pm 14.8 SSE 3 6 1024.7 - 0.2 - - - - - - -
14/07:30pm 15.1 SE 5 8 1024.7 - 0.0 - - - - - - -
14/07:00pm 15.9 WSW 2 6 1024.5 - 0.0 - - - - - - -
14/06:30pm 15.8 W 2 5 1024.3 - 0.0 - - - - - - -
14/06:00pm 15.9 WSW 3 7 1023.9 - 0.0 - - - - - - -
14/05:30pm 16.1 SW 2 5 1023.9 - 0.0 - - - - - - -
14/05:00pm 16.7 WSW 1 5 1023.8 - 0.0 - - - - - - -
14/04:30pm 16.9 S 2 6 1023.7 - 0.0 - - - - - - -
14/04:00pm 17.1 SW 3 6 1023.7 - 0.0 - - - - - - -
14/03:30pm 17.5 SSW 3 8 1023.7 - 0.0 - - - - - - -
14/03:00pm 17.7 S 3 7 1023.6 R 0.0 Fine Mostly cloudy 20 1 1.0 - S
14/02:30pm 18.1 SSE 5 8 1023.7 - 0.0 - - - - - - -
14/02:00pm 18.7 SSE 5 9 1023.7 - 0.0 - - - - - - -
14/01:30pm 19.0 SSE 5 8 1023.9 - 0.0 - - - - - - -
14/01:00pm 18.7 S 5 9 1024.2 - 0.0 - - - - - - -
14/12:30pm 18.4 SE 5 7 1024.5 - 0.0 - - - - - - -
14/12:00pm 17.5 SE 6 8 1024.7 - 0.0 - - - - - - -
14/11:30am 17.8 ESE 9 10 1025.0 - 0.0 - - - - - - -
14/11:00am 17.7 ESE 8 11 1025.0 - 0.0 - - - - - - -
14/10:30am 18.0 ESE 10 12 1025.0 - 0.0 - - - - - - -
14/10:00am 17.4 ESE 9 11 1025.0 - 0.0 - - - - - - -
14/09:30am 17.6 E 9 12 1024.9 - 0.0 - - - - - - -
14/09:00am 16.9 E 9 12 1024.8 - - Fine Mostly clear 20 1 1.0 - S
14/08:45am 16.8 - - - 1024.8 - - - - - - - - -
14/08:44am - - - - - - - - - - - - - -
14/08:30am 16.7 E 9 13 1024.7 - 0.0 - - - - - - -
14/08:00am 16.2 E 8 13 1024.4 - 0.0 - - - - - - -
14/07:30am 15.7 E 9 12 1024.2 - 0.0 - - - - - - -
14/07:00am 15.4 ESE 11 15 1023.9 - 0.0 - - - - - - -
14/06:30am 15.4 ESE 11 15 1023.8 - 0.0 - - - - - - -
14/06:00am 15.5 SE 10 14 1023.9 - 0.0 - - - - - - -
14/05:30am 15.4 SE 9 13 1023.7 - 0.0 - - - - - - -
14/05:00am 15.6 SE 11 15 1023.6 - 0.0 - - - - - - -
14/04:30am 15.5 ESE 11 16 1023.4 - 0.0 - - - - - - -
14/04:00am 15.6 ESE 10 14 1023.3 - 0.0 - - - - - - -
14/03:30am 15.3 E 9 13 1023.3 - 0.0 - - - - - - -
14/03:00am 15.2 E 9 14 1023.3 - 0.0 - - - - - - -
14/02:30am 15.3 ESE 10 15 1023.6 - 0.0 - - - - - - -
14/02:00am 15.4 E 9 14 1023.7 - 0.0 - - - - - - -
14/01:30am 15.2 ESE 10 15 1023.8 - 0.0 - - - - - - -
14/01:00am 15.2 E 8 13 1023.7 - 0.0 - - - - - - -
14/12:30am 15.2 E 9 13 1023.6 - 0.0 - - - - - - -
14/12:00am 15.2 E 9 13 1023.6 - 0.0 - - - - - - -
 
Date/Time
EST
Temp

°C
Wind Pressure Rain
since 9am
mm
Weather Cloud Vis
km
Sea
Height
m
Swell
Dir
 
Speed
knots
Gust
knots
hPa Trend Height
m
Period
s
Dir
13/11:30pm 15.2 E 10 15 1023.8 - 0.0 - - - - - - -
13/11:00pm 15.4 ESE 12 17 1023.9 - 0.0 - - - - - - -
13/10:30pm 15.5 ESE 14 17 1023.9 - 0.0 - - - - - - -
13/10:00pm 15.5 ESE 13 16 1023.9 - 0.0 - - - - - - -
13/09:30pm 15.6 SE 12 16 1023.9 - 0.0 - - - - - - -
13/09:00pm 15.7 SE 11 16 1023.9 - 0.0 - - - - - - -
13/08:30pm 15.7 SE 10 16 1023.8 - 0.0 - - - - - - -
13/08:00pm 15.8 SE 10 15 1023.7 - 0.0 - - - - - - -
13/07:30pm 15.8 SE 7 14 1023.6 - 0.0 - - - - - - -
13/07:00pm 15.9 SE 8 13 1023.3 - 0.0 - - - - - - -
13/06:30pm 15.7 ESE 13 16 1022.9 - 0.0 - - - - - - -
13/06:00pm 15.7 ESE 12 15 1022.5 - 0.0 - - - - - - -
13/05:30pm 16.1 E 9 14 1022.2 - 0.0 - - - - - - -
13/05:00pm 16.2 E 9 12 1021.8 - 0.0 - - - - - - -
13/04:30pm 16.4 ENE 10 15 1021.6 - 0.0 - - - - - - -
13/04:00pm 16.8 ENE 9 13 1021.7 - 0.0 - - - - - - -
13/03:30pm 16.5 ENE 11 17 1021.6 - 0.0 - - - - - - -
13/03:00pm 16.7 E 11 16 1021.7 - 0.0 - - - - - - -
13/02:30pm 17.4 E 9 19 1021.7 - 0.0 - - - - - - -

Other Formats:

Comma delimited format used in spreadsheet applications
http://www.bom.gov.au/fwo/IDT60701/IDT60701.94842.axf

JavaScript Object Notation format (JSON) in row-major order
http://www.bom.gov.au/fwo/IDT60701/IDT60701.94842.json